Jump to content


UNITED AIRLINES FLIGHT UA1853 FLOWN ON 03-22-2018 BY CAPTAIN JIM BOERMAN

Pilot StatsCaptain Jim Boerman (LDP136) • 4,997.7 total hours • 1,501 total flights [View Logbook]
FLIGHT DETAILS
StatusReceived and approved on 2018-03-22 at 11:03:53
Origin AirportFt Lauderdale-Hollywood Intl (KFLL) • Ft Lauderdale, Florida, United States (9 feet MSL)
Filed Flight PlanKFLL PBI A699 PERMT AR16 ILM J109 FAK J51 QBEES KIAD
Destination AirportWashington Dulles Intl (KIAD) • Washington, Virginia, United States (312 feet MSL)
Alternate AirportRichmond Intl (KRIC) • Richmond, Virginia, United States (167 feet MSL)
AirlineUnited Airlines
AircraftBoeing 737-900 | Winglets (73X / B737-900)
FS Aircraft UsedBoeing 737-924 United Airlines (Merger) Winglets
Cruising AltitudeFL330
Distance Flown785 nautical miles
Passengers Onboard65 passengers (37.36% full)
DEPARTURE DETAILS
Time Out09:06:53
Taxi Data144,195 lbs total with 18,390 lbs of fuel onboard
Takeoff Data09:18:34 (12 minutes after leaving gate/ramp) • 143,629 lbs total • 6° pitch at 167 knots
Departure METARKFLL 221153Z 33005KT 10SM CLR 13/09 A3017 RMK AO2 SLP216 T01330094 10144 20128 53020
ARRIVAL DETAILS
Landing Data11:22:48 • 131,914 lbs total • 1° pitch doing 122 knots at a rate of -123.80 feet/minute with 5,822 lbs of fuel onboard
Time In11:29:31 (7 minutes after landing)
Ramp Weight131,627 lbs total
Total Fuel Used12,568 lbs
Total Block Time02:22:28 (2.4 hours) while 18 minutes were spent on the ground
Arrival METARKIAD 221452Z 33016G23KT 10SM SCT160 BKN250 03/M06 A3002 RMK AO2 SLP166 T00281056 51015
MISCELLANEOUS DETAILS
LiveDISPATCH Version4.8.3.1
FS Version
FSUIPC Version5.12
OS VersionWindows 7 32-bit
Screen Resolution1920 x 1080
Pilot's CommentsNo Comments Reported
FLIGHT MAP